ESNN

Sundsvall-Härnösand Airport

Sundsvall/ Härnösand, Sweden
METAR ESNN 212220Z AUTO 29010KT 9999 NCD 06/M01 Q1008
Observed Flight Rules
Apr-21 @ 22:20 UTC (40 minutes ago) Visual Flight Rules
Wind Visibility Clouds
290° at 10 knots 10,000+ meters
  • Clear skies
Temperatures Readings
Current 6°C / 43°F
Dewpoint -1°C / 30°F
Humidity 61%
Altimeter 29.76" Hg
Pressure 1008 hPa
Elevation 10
METAR ESNN 212220Z AUTO 29010KT 9999 NCD 06/M01 Q1008
Observed Flight Rules
Apr-21 @ 22:20 UTC
(40 minutes ago)
VFR
Wind Visibility
290° at 10 knots 10,000+ meters
Clouds
  • Clear skies
Temperature Dewpoint
6°C / 43°F -1°C / 30°F
Humidity Altimeter Pressure
61% 29.76" Hg 1008 hPa